sensor_id;sensor_type;location;lat;lon;timestamp;pressure;altitude;pressure_sealevel;temperature;humidity
21129;BME280;10722;51.910;8.352;2023-03-03T00:01:40;101675.75;;;1.13;100.00
21129;BME280;10722;51.910;8.352;2023-03-03T00:04:25;101667.19;;;1.12;100.00
21129;BME280;10722;51.910;8.352;2023-03-03T00:07:10;101661.00;;;1.09;100.00
21129;BME280;10722;51.910;8.352;2023-03-03T00:09:55;101663.13;;;1.03;100.00
21129;BME280;10722;51.910;8.352;2023-03-03T00:12:48;101663.34;;;1.06;100.00
21129;BME280;10722;51.910;8.352;2023-03-03T00:15:34;101661.00;;;1.09;100.00
21129;BME280;10722;51.910;8.352;2023-03-03T00:21:30;101660.00;;;1.19;100.00
21129;BME280;10722;51.910;8.352;2023-03-03T00:24:21;101660.22;;;1.22;100.00
21129;BME280;10722;51.910;8.352;2023-03-03T00:27:33;101661.88;;;1.21;100.00
21129;BME280;10722;51.910;8.352;2023-03-03T00:30:25;101661.44;;;1.15;100.00
21129;BME280;10722;51.910;8.352;2023-03-03T00:33:32;101668.78;;;1.10;100.00
21129;BME280;10722;51.910;8.352;2023-03-03T00:36:27;101665.09;;;1.19;100.00
21129;BME280;10722;51.910;8.352;2023-03-03T00:39:39;101659.22;;;1.20;100.00
21129;BME280;10722;51.910;8.352;2023-03-03T00:42:26;101663.06;;;1.26;100.00
21129;BME280;10722;51.910;8.352;2023-03-03T00:45:32;101668.53;;;1.19;100.00
21129;BME280;10722;51.910;8.352;2023-03-03T00:48:50;101652.66;;;1.23;100.00
21129;BME280;10722;51.910;8.352;2023-03-03T00:51:35;101657.47;;;1.19;100.00
21129;BME280;10722;51.910;8.352;2023-03-03T00:54:20;101656.00;;;1.22;100.00
21129;BME280;10722;51.910;8.352;2023-03-03T00:57:05;101659.00;;;1.17;100.00
21129;BME280;10722;51.910;8.352;2023-03-03T00:59:50;101647.94;;;1.16;100.00
21129;BME280;10722;51.910;8.352;2023-03-03T01:02:35;101644.81;;;1.20;100.00
21129;BME280;10722;51.910;8.352;2023-03-03T01:05:21;101643.88;;;1.31;100.00
21129;BME280;10722;51.910;8.352;2023-03-03T01:08:06;101638.88;;;1.45;100.00
21129;BME280;10722;51.910;8.352;2023-03-03T01:10:55;101640.28;;;1.53;100.00
21129;BME280;10722;51.910;8.352;2023-03-03T01:13:43;101640.94;;;1.50;100.00
21129;BME280;10722;51.910;8.352;2023-03-03T01:16:30;101646.56;;;1.33;100.00
21129;BME280;10722;51.910;8.352;2023-03-03T01:19:15;101647.22;;;1.30;100.00
21129;BME280;10722;51.910;8.352;2023-03-03T01:22:00;101650.22;;;1.25;100.00
21129;BME280;10722;51.910;8.352;2023-03-03T01:24:46;101643.13;;;1.21;100.00
21129;BME280;10722;51.910;8.352;2023-03-03T01:27:31;101638.06;;;1.09;100.00
21129;BME280;10722;51.910;8.352;2023-03-03T01:30:16;101637.28;;;1.22;100.00
21129;BME280;10722;51.910;8.352;2023-03-03T01:33:02;101638.78;;;1.31;100.00
21129;BME280;10722;51.910;8.352;2023-03-03T01:35:47;101649.44;;;1.26;100.00
21129;BME280;10722;51.910;8.352;2023-03-03T01:38:36;101641.50;;;1.21;100.00
21129;BME280;10722;51.910;8.352;2023-03-03T01:41:22;101643.75;;;1.42;100.00
21129;BME280;10722;51.910;8.352;2023-03-03T01:44:12;101643.38;;;1.49;100.00
21129;BME280;10722;51.910;8.352;2023-03-03T01:47:19;101638.25;;;1.36;100.00
21129;BME280;10722;51.910;8.352;2023-03-03T01:50:12;101644.84;;;1.45;100.00
21129;BME280;10722;51.910;8.352;2023-03-03T01:53:02;101638.91;;;1.33;100.00
21129;BME280;10722;51.910;8.352;2023-03-03T01:55:49;101631.75;;;1.41;100.00
21129;BME280;10722;51.910;8.352;2023-03-03T01:58:49;101634.81;;;1.23;100.00
21129;BME280;10722;51.910;8.352;2023-03-03T02:01:35;101633.94;;;1.23;100.00
21129;BME280;10722;51.910;8.352;2023-03-03T02:04:20;101640.31;;;1.41;100.00
21129;BME280;10722;51.910;8.352;2023-03-03T02:07:08;101641.97;;;1.41;100.00
21129;BME280;10722;51.910;8.352;2023-03-03T02:09:56;101626.81;;;1.30;100.00
21129;BME280;10722;51.910;8.352;2023-03-03T02:12:54;101637.25;;;1.33;100.00
21129;BME280;10722;51.910;8.352;2023-03-03T02:15:40;101630.13;;;1.29;100.00
21129;BME280;10722;51.910;8.352;2023-03-03T02:18:26;101622.72;;;1.32;100.00
21129;BME280;10722;51.910;8.352;2023-03-03T02:21:15;101626.56;;;1.39;100.00
21129;BME280;10722;51.910;8.352;2023-03-03T02:24:07;101628.06;;;1.49;100.00
21129;BME280;10722;51.910;8.352;2023-03-03T02:26:54;101634.28;;;1.27;100.00
21129;BME280;10722;51.910;8.352;2023-03-03T02:29:39;101630.41;;;1.09;100.00
21129;BME280;10722;51.910;8.352;2023-03-03T02:32:24;101629.75;;;1.11;100.00
21129;BME280;10722;51.910;8.352;2023-03-03T02:35:32;101637.72;;;1.16;100.00
21129;BME280;10722;51.910;8.352;2023-03-03T02:44:09;101632.47;;;1.26;100.00
21129;BME280;10722;51.910;8.352;2023-03-03T02:46:56;101641.50;;;1.09;100.00
21129;BME280;10722;51.910;8.352;2023-03-03T02:49:41;101647.97;;;1.04;100.00
21129;BME280;10722;51.910;8.352;2023-03-03T02:52:26;101650.59;;;1.06;100.00
21129;BME280;10722;51.910;8.352;2023-03-03T02:55:11;101639.53;;;1.05;100.00
21129;BME280;10722;51.910;8.352;2023-03-03T02:57:57;101648.47;;;1.12;100.00
21129;BME280;10722;51.910;8.352;2023-03-03T03:00:42;101644.25;;;1.12;100.00
21129;BME280;10722;51.910;8.352;2023-03-03T03:03:27;101646.13;;;1.15;100.00
21129;BME280;10722;51.910;8.352;2023-03-03T03:06:13;101649.81;;;1.19;100.00
21129;BME280;10722;51.910;8.352;2023-03-03T03:08:58;101651.03;;;1.12;100.00
21129;BME280;10722;51.910;8.352;2023-03-03T03:11:43;101657.47;;;1.19;100.00
21129;BME280;10722;51.910;8.352;2023-03-03T03:14:28;101647.44;;;1.33;100.00
21129;BME280;10722;51.910;8.352;2023-03-03T03:17:14;101643.22;;;1.34;100.00
21129;BME280;10722;51.910;8.352;2023-03-03T03:19:59;101648.06;;;1.43;100.00
21129;BME280;10722;51.910;8.352;2023-03-03T03:22:44;101637.44;;;1.37;100.00
21129;BME280;10722;51.910;8.352;2023-03-03T03:25:29;101636.81;;;1.27;100.00
21129;BME280;10722;51.910;8.352;2023-03-03T03:28:15;101629.41;;;1.07;100.00
21129;BME280;10722;51.910;8.352;2023-03-03T03:31:02;101642.75;;;1.03;100.00
21129;BME280;10722;51.910;8.352;2023-03-03T03:33:48;101642.19;;;0.95;100.00
21129;BME280;10722;51.910;8.352;2023-03-03T03:36:33;101642.53;;;1.00;100.00
21129;BME280;10722;51.910;8.352;2023-03-03T03:39:18;101639.56;;;0.94;100.00
21129;BME280;10722;51.910;8.352;2023-03-03T03:42:03;101650.81;;;1.09;100.00
21129;BME280;10722;51.910;8.352;2023-03-03T03:44:48;101634.44;;;1.05;100.00
21129;BME280;10722;51.910;8.352;2023-03-03T03:47:33;101636.34;;;0.96;100.00
21129;BME280;10722;51.910;8.352;2023-03-03T03:50:19;101636.31;;;1.08;100.00
21129;BME280;10722;51.910;8.352;2023-03-03T03:53:06;101623.56;;;1.08;100.00
21129;BME280;10722;51.910;8.352;2023-03-03T03:55:51;101636.84;;;1.16;100.00
21129;BME280;10722;51.910;8.352;2023-03-03T03:58:36;101638.63;;;1.17;100.00
21129;BME280;10722;51.910;8.352;2023-03-03T04:01:21;101633.09;;;1.10;100.00
21129;BME280;10722;51.910;8.352;2023-03-03T04:04:06;101637.44;;;1.00;100.00
21129;BME280;10722;51.910;8.352;2023-03-03T04:06:51;101642.06;;;1.05;100.00
21129;BME280;10722;51.910;8.352;2023-03-03T04:09:36;101640.28;;;1.16;100.00
21129;BME280;10722;51.910;8.352;2023-03-03T04:12:20;101643.75;;;1.05;100.00
21129;BME280;10722;51.910;8.352;2023-03-03T04:15:09;101642.16;;;1.07;100.00
21129;BME280;10722;51.910;8.352;2023-03-03T04:17:55;101647.88;;;0.91;100.00
21129;BME280;10722;51.910;8.352;2023-03-03T04:20:40;101642.88;;;0.81;100.00
21129;BME280;10722;51.910;8.352;2023-03-03T04:23:26;101651.50;;;0.95;100.00
21129;BME280;10722;51.910;8.352;2023-03-03T04:26:11;101653.28;;;0.84;100.00
21129;BME280;10722;51.910;8.352;2023-03-03T04:28:56;101657.84;;;0.76;100.00
21129;BME280;10722;51.910;8.352;2023-03-03T04:31:41;101665.50;;;0.76;100.00
21129;BME280;10722;51.910;8.352;2023-03-03T04:34:26;101664.13;;;0.81;100.00
21129;BME280;10722;51.910;8.352;2023-03-03T04:37:11;101652.41;;;0.83;100.00
21129;BME280;10722;51.910;8.352;2023-03-03T04:39:56;101656.94;;;0.64;100.00
21129;BME280;10722;51.910;8.352;2023-03-03T04:42:41;101645.22;;;0.66;100.00
21129;BME280;10722;51.910;8.352;2023-03-03T04:45:26;101641.34;;;0.71;100.00
21129;BME280;10722;51.910;8.352;2023-03-03T04:48:11;101648.19;;;0.84;100.00
21129;BME280;10722;51.910;8.352;2023-03-03T04:50:56;101648.16;;;0.96;100.00
21129;BME280;10722;51.910;8.352;2023-03-03T04:53:41;101652.75;;;0.88;100.00
21129;BME280;10722;51.910;8.352;2023-03-03T04:56:26;101652.84;;;0.78;100.00
21129;BME280;10722;51.910;8.352;2023-03-03T04:59:12;101653.06;;;0.81;100.00
21129;BME280;10722;51.910;8.352;2023-03-03T05:01:58;101654.41;;;0.87;100.00
21129;BME280;10722;51.910;8.352;2023-03-03T05:04:44;101646.88;;;0.77;100.00
21129;BME280;10722;51.910;8.352;2023-03-03T05:07:29;101656.19;;;0.77;100.00
21129;BME280;10722;51.910;8.352;2023-03-03T05:10:15;101651.41;;;0.81;100.00
21129;BME280;10722;51.910;8.352;2023-03-03T05:12:59;101649.66;;;0.69;100.00
21129;BME280;10722;51.910;8.352;2023-03-03T05:15:53;101656.72;;;0.61;100.00
21129;BME280;10722;51.910;8.352;2023-03-03T05:18:39;101666.69;;;0.70;100.00
21129;BME280;10722;51.910;8.352;2023-03-03T05:21:24;101674.69;;;0.74;100.00
21129;BME280;10722;51.910;8.352;2023-03-03T05:24:10;101668.22;;;0.67;100.00
21129;BME280;10722;51.910;8.352;2023-03-03T05:26:56;101669.47;;;0.49;100.00
21129;BME280;10722;51.910;8.352;2023-03-03T05:29:42;101675.00;;;0.67;100.00
21129;BME280;10722;51.910;8.352;2023-03-03T05:32:27;101673.91;;;0.63;100.00
21129;BME280;10722;51.910;8.352;2023-03-03T05:35:12;101675.00;;;0.55;100.00
21129;BME280;10722;51.910;8.352;2023-03-03T05:37:57;101673.69;;;0.60;100.00
21129;BME280;10722;51.910;8.352;2023-03-03T05:40:42;101683.63;;;0.57;100.00
21129;BME280;10722;51.910;8.352;2023-03-03T05:43:27;101685.63;;;0.50;100.00
21129;BME280;10722;51.910;8.352;2023-03-03T05:46:13;101699.50;;;0.65;100.00
21129;BME280;10722;51.910;8.352;2023-03-03T05:48:59;101693.38;;;0.63;100.00
21129;BME280;10722;51.910;8.352;2023-03-03T05:51:44;101698.91;;;0.57;100.00
21129;BME280;10722;51.910;8.352;2023-03-03T05:54:29;101703.44;;;0.61;100.00
21129;BME280;10722;51.910;8.352;2023-03-03T05:57:14;101692.59;;;0.64;100.00
21129;BME280;10722;51.910;8.352;2023-03-03T06:00:04;101695.59;;;0.58;100.00
21129;BME280;10722;51.910;8.352;2023-03-03T06:02:49;101703.56;;;0.51;100.00
21129;BME280;10722;51.910;8.352;2023-03-03T06:05:35;101691.94;;;0.55;100.00
21129;BME280;10722;51.910;8.352;2023-03-03T06:08:20;101701.53;;;0.35;100.00
21129;BME280;10722;51.910;8.352;2023-03-03T06:11:05;101704.09;;;0.35;100.00
21129;BME280;10722;51.910;8.352;2023-03-03T06:13:50;101709.63;;;0.41;100.00
21129;BME280;10722;51.910;8.352;2023-03-03T06:16:35;101710.56;;;0.54;100.00
21129;BME280;10722;51.910;8.352;2023-03-03T06:19:21;101720.19;;;0.58;100.00
21129;BME280;10722;51.910;8.352;2023-03-03T06:22:07;101718.50;;;0.58;100.00
21129;BME280;10722;51.910;8.352;2023-03-03T06:24:52;101718.19;;;0.54;100.00
21129;BME280;10722;51.910;8.352;2023-03-03T06:27:37;101719.59;;;0.50;100.00
21129;BME280;10722;51.910;8.352;2023-03-03T06:30:22;101731.25;;;0.58;100.00
21129;BME280;10722;51.910;8.352;2023-03-03T06:33:07;101727.25;;;0.50;100.00
21129;BME280;10722;51.910;8.352;2023-03-03T06:35:53;101720.59;;;0.40;100.00
21129;BME280;10722;51.910;8.352;2023-03-03T06:38:38;101723.59;;;0.47;100.00
21129;BME280;10722;51.910;8.352;2023-03-03T06:41:24;101729.25;;;0.42;100.00
21129;BME280;10722;51.910;8.352;2023-03-03T06:44:09;101737.56;;;0.52;100.00
21129;BME280;10722;51.910;8.352;2023-03-03T06:46:54;101732.91;;;0.58;100.00
21129;BME280;10722;51.910;8.352;2023-03-03T06:49:39;101742.00;;;0.66;100.00
21129;BME280;10722;51.910;8.352;2023-03-03T06:52:25;101744.78;;;0.69;100.00
21129;BME280;10722;51.910;8.352;2023-03-03T06:55:14;101748.19;;;0.81;100.00
21129;BME280;10722;51.910;8.352;2023-03-03T06:58:07;101745.56;;;0.92;100.00
21129;BME280;10722;51.910;8.352;2023-03-03T07:00:57;101748.97;;;0.69;100.00
21129;BME280;10722;51.910;8.352;2023-03-03T07:03:42;101750.94;;;0.49;100.00
21129;BME280;10722;51.910;8.352;2023-03-03T07:06:28;101758.16;;;0.55;100.00
21129;BME280;10722;51.910;8.352;2023-03-03T07:12:12;101766.47;;;0.64;100.00
21129;BME280;10722;51.910;8.352;2023-03-03T07:17:48;101758.34;;;0.46;100.00
21129;BME280;10722;51.910;8.352;2023-03-03T07:20:37;101756.91;;;0.50;100.00
21129;BME280;10722;51.910;8.352;2023-03-03T07:23:30;101773.50;;;0.44;100.00
21129;BME280;10722;51.910;8.352;2023-03-03T07:26:20;101774.88;;;0.63;100.00
21129;BME280;10722;51.910;8.352;2023-03-03T07:32:01;101791.31;;;0.44;100.00
21129;BME280;10722;51.910;8.352;2023-03-03T07:34:48;101797.78;;;0.51;100.00
21129;BME280;10722;51.910;8.352;2023-03-03T07:37:37;101794.94;;;0.36;100.00
21129;BME280;10722;51.910;8.352;2023-03-03T07:40:51;101797.63;;;0.38;100.00
21129;BME280;10722;51.910;8.352;2023-03-03T07:43:39;101808.59;;;0.37;100.00
21129;BME280;10722;51.910;8.352;2023-03-03T07:46:41;101816.06;;;0.57;100.00
21129;BME280;10722;51.910;8.352;2023-03-03T07:49:34;101814.84;;;0.64;100.00
21129;BME280;10722;51.910;8.352;2023-03-03T07:55:36;101812.50;;;0.55;100.00
21129;BME280;10722;51.910;8.352;2023-03-03T07:58:37;101815.63;;;0.63;100.00
21129;BME280;10722;51.910;8.352;2023-03-03T08:04:40;101806.13;;;0.72;100.00
21129;BME280;10722;51.910;8.352;2023-03-03T08:07:28;101804.47;;;0.84;100.00
21129;BME280;10722;51.910;8.352;2023-03-03T08:18:57;101798.84;;;0.88;100.00
21129;BME280;10722;51.910;8.352;2023-03-03T08:21:45;101797.41;;;0.92;100.00
21129;BME280;10722;51.910;8.352;2023-03-03T08:24:29;101796.28;;;0.88;100.00
21129;BME280;10722;51.910;8.352;2023-03-03T08:27:15;101794.63;;;1.01;100.00
21129;BME280;10722;51.910;8.352;2023-03-03T08:30:00;101794.19;;;1.18;100.00
21129;BME280;10722;51.910;8.352;2023-03-03T08:32:45;101798.88;;;1.36;100.00
21129;BME280;10722;51.910;8.352;2023-03-03T08:35:31;101785.56;;;1.04;100.00
21129;BME280;10722;51.910;8.352;2023-03-03T08:38:18;101795.50;;;1.01;100.00
21129;BME280;10722;51.910;8.352;2023-03-03T08:41:04;101791.34;;;1.14;100.00
21129;BME280;10722;51.910;8.352;2023-03-03T08:43:49;101797.31;;;1.14;100.00
21129;BME280;10722;51.910;8.352;2023-03-03T08:46:35;101793.97;;;1.15;100.00
21129;BME280;10722;51.910;8.352;2023-03-03T08:49:20;101790.31;;;1.23;100.00
21129;BME280;10722;51.910;8.352;2023-03-03T08:52:06;101788.91;;;1.27;100.00
21129;BME280;10722;51.910;8.352;2023-03-03T08:54:51;101778.44;;;1.24;100.00
21129;BME280;10722;51.910;8.352;2023-03-03T08:57:36;101786.84;;;1.46;100.00
21129;BME280;10722;51.910;8.352;2023-03-03T09:00:21;101776.91;;;1.49;100.00
21129;BME280;10722;51.910;8.352;2023-03-03T09:03:06;101776.56;;;1.09;100.00
21129;BME280;10722;51.910;8.352;2023-03-03T09:05:52;101782.34;;;1.30;100.00
21129;BME280;10722;51.910;8.352;2023-03-03T09:08:36;101776.31;;;1.53;100.00
21129;BME280;10722;51.910;8.352;2023-03-03T09:11:26;101774.25;;;1.36;100.00
21129;BME280;10722;51.910;8.352;2023-03-03T09:14:14;101777.03;;;1.27;100.00
21129;BME280;10722;51.910;8.352;2023-03-03T09:17:00;101779.88;;;1.32;100.00
21129;BME280;10722;51.910;8.352;2023-03-03T09:19:45;101763.94;;;1.34;100.00
21129;BME280;10722;51.910;8.352;2023-03-03T09:22:35;101772.59;;;1.37;100.00
21129;BME280;10722;51.910;8.352;2023-03-03T09:25:34;101773.66;;;1.52;100.00
21129;BME280;10722;51.910;8.352;2023-03-03T09:28:29;101766.69;;;1.49;100.00
21129;BME280;10722;51.910;8.352;2023-03-03T09:31:26;101761.81;;;1.41;100.00
21129;BME280;10722;51.910;8.352;2023-03-03T09:37:22;101771.09;;;1.52;100.00
21129;BME280;10722;51.910;8.352;2023-03-03T09:50:02;101767.31;;;1.70;100.00
21129;BME280;10722;51.910;8.352;2023-03-03T09:53:18;101763.34;;;1.62;100.00
21129;BME280;10722;51.910;8.352;2023-03-03T09:56:09;101762.22;;;1.70;100.00
21129;BME280;10722;51.910;8.352;2023-03-03T10:05:29;101748.34;;;2.04;100.00
21129;BME280;10722;51.910;8.352;2023-03-03T10:26:57;101740.91;;;2.58;100.00
21129;BME280;10722;51.910;8.352;2023-03-03T10:30:12;101735.25;;;2.76;98.79
21129;BME280;10722;51.910;8.352;2023-03-03T10:51:24;101697.75;;;3.71;93.97
21129;BME280;10722;51.910;8.352;2023-03-03T10:57:23;101696.97;;;3.44;94.00
21129;BME280;10722;51.910;8.352;2023-03-03T11:03:34;101694.53;;;3.60;93.54
21129;BME280;10722;51.910;8.352;2023-03-03T11:09:51;101678.63;;;3.51;92.41
21129;BME280;10722;51.910;8.352;2023-03-03T11:12:50;101671.91;;;3.66;91.98
21129;BME280;10722;51.910;8.352;2023-03-03T11:15:53;101674.84;;;3.59;91.77
21129;BME280;10722;51.910;8.352;2023-03-03T11:21:55;101667.13;;;3.44;91.21
21129;BME280;10722;51.910;8.352;2023-03-03T11:24:56;101680.09;;;3.61;91.92
21129;BME280;10722;51.910;8.352;2023-03-03T11:27:59;101691.56;;;3.95;91.61
21129;BME280;10722;51.910;8.352;2023-03-03T11:36:57;101643.69;;;3.51;90.34
21129;BME280;10722;51.910;8.352;2023-03-03T11:39:45;101646.56;;;3.43;90.94
21129;BME280;10722;51.910;8.352;2023-03-03T11:42:45;101649.31;;;3.46;90.49
21129;BME280;10722;51.910;8.352;2023-03-03T11:45:43;101677.00;;;4.09;90.63
21129;BME280;10722;51.910;8.352;2023-03-03T11:54:41;101643.97;;;4.43;88.89
21129;BME280;10722;51.910;8.352;2023-03-03T12:00:31;101636.00;;;5.00;87.86
21129;BME280;10722;51.910;8.352;2023-03-03T12:03:35;101592.53;;;4.86;86.27
21129;BME280;10722;51.910;8.352;2023-03-03T12:12:26;101569.50;;;5.19;84.96
21129;BME280;10722;51.910;8.352;2023-03-03T12:15:25;101565.66;;;5.44;84.56
21129;BME280;10722;51.910;8.352;2023-03-03T12:21:53;101514.34;;;5.27;82.75
21129;BME280;10722;51.910;8.352;2023-03-03T12:24:56;101507.31;;;4.43;82.96
21129;BME280;10722;51.910;8.352;2023-03-03T12:33:51;101553.28;;;5.20;83.40
21129;BME280;10722;51.910;8.352;2023-03-03T12:36:42;101543.59;;;5.14;83.03
21129;BME280;10722;51.910;8.352;2023-03-03T12:43:19;101547.78;;;5.63;82.30
21129;BME280;10722;51.910;8.352;2023-03-03T12:46:21;101517.81;;;5.80;81.50
21129;BME280;10722;51.910;8.352;2023-03-03T12:49:13;101501.97;;;5.71;80.77
21129;BME280;10722;51.910;8.352;2023-03-03T12:55:07;101481.03;;;7.29;78.06
21129;BME280;10722;51.910;8.352;2023-03-03T13:04:43;101357.59;;;7.32;72.85
21129;BME280;10722;51.910;8.352;2023-03-03T13:16:30;101442.19;;;7.64;74.06
21129;BME280;10722;51.910;8.352;2023-03-03T13:19:42;101383.44;;;6.93;72.90
21129;BME280;10722;51.910;8.352;2023-03-03T13:22:41;101422.69;;;6.89;74.05
21129;BME280;10722;51.910;8.352;2023-03-03T13:28:40;101405.22;;;7.41;72.58
21129;BME280;10722;51.910;8.352;2023-03-03T13:31:37;101408.56;;;7.19;72.91
21129;BME280;10722;51.910;8.352;2023-03-03T13:37:21;101404.03;;;6.93;72.94
21129;BME280;10722;51.910;8.352;2023-03-03T13:40:16;101435.28;;;7.43;73.20
21129;BME280;10722;51.910;8.352;2023-03-03T13:43:08;101410.41;;;7.43;72.20
21129;BME280;10722;51.910;8.352;2023-03-03T13:52:06;101396.44;;;6.96;72.10
21129;BME280;10722;51.910;8.352;2023-03-03T13:55:08;101403.00;;;6.70;72.31
21129;BME280;10722;51.910;8.352;2023-03-03T14:01:21;101410.84;;;7.54;71.65
21129;BME280;10722;51.910;8.352;2023-03-03T14:07:38;101411.84;;;7.15;72.11
21129;BME280;10722;51.910;8.352;2023-03-03T14:10:53;101435.28;;;7.63;72.24
21129;BME280;10722;51.910;8.352;2023-03-03T14:14:00;101406.09;;;8.30;70.88
21129;BME280;10722;51.910;8.352;2023-03-03T14:17:14;101375.84;;;7.80;70.50
21129;BME280;10722;51.910;8.352;2023-03-03T14:20:23;101415.94;;;7.52;71.66
21129;BME280;10722;51.910;8.352;2023-03-03T14:23:24;101390.19;;;7.10;71.65
21129;BME280;10722;51.910;8.352;2023-03-03T14:26:11;101468.16;;;7.09;73.70
21129;BME280;10722;51.910;8.352;2023-03-03T14:29:18;101469.09;;;8.15;72.76
21129;BME280;10722;51.910;8.352;2023-03-03T14:32:23;101396.44;;;8.02;70.78
21129;BME280;10722;51.910;8.352;2023-03-03T14:35:51;101379.59;;;8.11;69.85
21129;BME280;10722;51.910;8.352;2023-03-03T14:38:46;101340.50;;;6.92;70.44
21129;BME280;10722;51.910;8.352;2023-03-03T14:41:38;101421.47;;;6.61;73.20
21129;BME280;10722;51.910;8.352;2023-03-03T14:44:35;101474.00;;;7.25;73.92
21129;BME280;10722;51.910;8.352;2023-03-03T14:47:22;101476.94;;;7.74;73.39
21129;BME280;10722;51.910;8.352;2023-03-03T14:53:19;101429.75;;;7.33;72.51
21129;BME280;10722;51.910;8.352;2023-03-03T14:56:28;101426.09;;;6.88;73.03
21129;BME280;10722;51.910;8.352;2023-03-03T14:59:21;101449.28;;;7.09;73.19
21129;BME280;10722;51.910;8.352;2023-03-03T15:10:49;101501.69;;;7.11;75.44
21129;BME280;10722;51.910;8.352;2023-03-03T15:13:34;101479.66;;;7.37;74.64
21129;BME280;10722;51.910;8.352;2023-03-03T15:16:23;101455.91;;;7.23;74.10
21129;BME280;10722;51.910;8.352;2023-03-03T15:22:09;101471.31;;;6.83;75.43
21129;BME280;10722;51.910;8.352;2023-03-03T15:25:05;101469.63;;;6.46;75.80
21129;BME280;10722;51.910;8.352;2023-03-03T15:40:35;101437.81;;;7.41;74.17
21129;BME280;10722;51.910;8.352;2023-03-03T15:43:40;101410.72;;;7.51;72.78
21129;BME280;10722;51.910;8.352;2023-03-03T15:52:59;101378.94;;;7.94;71.34
21129;BME280;10722;51.910;8.352;2023-03-03T15:59:11;101348.44;;;7.17;71.01
21129;BME280;10722;51.910;8.352;2023-03-03T16:04:55;101389.50;;;6.95;72.44
21129;BME280;10722;51.910;8.352;2023-03-03T16:13:46;101398.34;;;7.42;72.29
21129;BME280;10722;51.910;8.352;2023-03-03T16:25:52;101474.91;;;6.12;76.38
21129;BME280;10722;51.910;8.352;2023-03-03T16:29:01;101484.88;;;6.23;76.10
21129;BME280;10722;51.910;8.352;2023-03-03T16:32:00;101466.31;;;6.11;76.02
21129;BME280;10722;51.910;8.352;2023-03-03T16:34:57;101474.94;;;6.13;76.23
21129;BME280;10722;51.910;8.352;2023-03-03T16:37:59;101452.84;;;5.81;76.22
21129;BME280;10722;51.910;8.352;2023-03-03T16:40:53;101456.31;;;5.13;77.10
21129;BME280;10722;51.910;8.352;2023-03-03T16:43:53;101506.00;;;5.15;79.01
21129;BME280;10722;51.910;8.352;2023-03-03T16:46:49;101523.50;;;4.58;80.11
21129;BME280;10722;51.910;8.352;2023-03-03T16:49:51;101538.75;;;4.40;81.29
21129;BME280;10722;51.910;8.352;2023-03-03T16:53:09;101567.22;;;4.45;82.50
21129;BME280;10722;51.910;8.352;2023-03-03T17:04:58;101607.06;;;3.95;85.89
21129;BME280;10722;51.910;8.352;2023-03-03T17:08:02;101607.13;;;3.82;86.70
21129;BME280;10722;51.910;8.352;2023-03-03T17:14:21;101611.00;;;3.75;87.67
21129;BME280;10722;51.910;8.352;2023-03-03T17:20:29;101626.88;;;3.70;88.59
21129;BME280;10722;51.910;8.352;2023-03-03T17:26:46;101614.31;;;3.59;88.69
21129;BME280;10722;51.910;8.352;2023-03-03T17:29:40;101612.72;;;3.47;88.82
21129;BME280;10722;51.910;8.352;2023-03-03T17:41:42;101630.88;;;2.68;90.59
21129;BME280;10722;51.910;8.352;2023-03-03T17:45:14;101645.34;;;2.68;91.64
21129;BME280;10722;51.910;8.352;2023-03-03T17:57:47;101677.47;;;2.13;95.40
21129;BME280;10722;51.910;8.352;2023-03-03T18:04:05;101686.13;;;2.15;96.86
21129;BME280;10722;51.910;8.352;2023-03-03T18:07:10;101690.97;;;2.23;97.28
21129;BME280;10722;51.910;8.352;2023-03-03T18:13:45;101694.59;;;2.27;98.40
21129;BME280;10722;51.910;8.352;2023-03-03T18:26:41;101710.59;;;2.24;100.00
21129;BME280;10722;51.910;8.352;2023-03-03T18:29:28;101713.16;;;2.24;100.00
21129;BME280;10722;51.910;8.352;2023-03-03T18:32:19;101719.28;;;2.40;100.00
21129;BME280;10722;51.910;8.352;2023-03-03T18:38:22;101715.66;;;2.50;100.00
21129;BME280;10722;51.910;8.352;2023-03-03T18:41:10;101715.78;;;2.64;100.00
21129;BME280;10722;51.910;8.352;2023-03-03T18:43:58;101713.53;;;2.69;100.00
21129;BME280;10722;51.910;8.352;2023-03-03T18:46:46;101713.63;;;2.71;100.00
21129;BME280;10722;51.910;8.352;2023-03-03T18:49:55;101711.47;;;2.77;100.00
21129;BME280;10722;51.910;8.352;2023-03-03T18:56:02;101712.84;;;2.98;100.00
21129;BME280;10722;51.910;8.352;2023-03-03T18:58:49;101708.53;;;3.10;100.00
21129;BME280;10722;51.910;8.352;2023-03-03T19:04:23;101694.63;;;3.20;100.00
21129;BME280;10722;51.910;8.352;2023-03-03T19:07:13;101695.00;;;3.26;99.52
21129;BME280;10722;51.910;8.352;2023-03-03T19:10:03;101696.78;;;3.27;99.23
21129;BME280;10722;51.910;8.352;2023-03-03T19:12:57;101687.94;;;3.35;98.70
21129;BME280;10722;51.910;8.352;2023-03-03T19:15:44;101688.63;;;3.20;98.44
21129;BME280;10722;51.910;8.352;2023-03-03T19:18:33;101673.22;;;2.91;98.12
21129;BME280;10722;51.910;8.352;2023-03-03T19:21:21;101672.34;;;2.78;98.48
21129;BME280;10722;51.910;8.352;2023-03-03T19:30:12;101698.78;;;2.52;100.00
21129;BME280;10722;51.910;8.352;2023-03-03T19:33:13;101705.56;;;2.51;100.00
21129;BME280;10722;51.910;8.352;2023-03-03T19:39:01;101707.31;;;2.52;100.00
21129;BME280;10722;51.910;8.352;2023-03-03T19:42:17;101719.88;;;2.49;100.00
21129;BME280;10722;51.910;8.352;2023-03-03T19:45:11;101719.22;;;2.52;100.00
21129;BME280;10722;51.910;8.352;2023-03-03T19:55:04;101729.94;;;2.73;100.00
21129;BME280;10722;51.910;8.352;2023-03-03T20:00:55;101737.22;;;3.06;100.00
21129;BME280;10722;51.910;8.352;2023-03-03T20:10:14;101704.97;;;3.22;100.00
21129;BME280;10722;51.910;8.352;2023-03-03T20:13:15;101705.13;;;3.38;100.00
21129;BME280;10722;51.910;8.352;2023-03-03T20:16:25;101698.56;;;3.28;100.00